This is the latest recevied weather packets stored in our database for station/object N3RPH-10. If no packets are shown the sender has not sent any weather packets the latest 10 day(s).
| Time | Temp. | Humidity | Pressure | Rain* | Wind** | Luminosity | Snow |
|---|---|---|---|---|---|---|---|
| 1788106841 | 26.67° C | 62% | 1019.4 hPa | 0 mm | - | 424 W/m² | - |
| 1788106541 | 27.22° C | 62% | 1019.5 hPa | 0 mm | - | 485 W/m² | - |
| 1788106241 | 26.67° C | 63% | 1019.3 hPa | 0 mm | - | 621 W/m² | - |
| 1788105941 | 26.67° C | 65% | 1019.5 hPa | 0 mm | - | 525 W/m² | - |
| 1788105641 | 26.67° C | 65% | 1019.5 hPa | 0 mm | - | 385 W/m² | - |
| 1788105341 | 26.67° C | 66% | 1019.2 hPa | 0 mm | - | 507 W/m² | - |
| 1788105041 | 26.11° C | 67% | 1019.3 hPa | 0 mm | - | 469 W/m² | - |
| 1788104741 | 26.67° C | 66% | 1019.4 hPa | 0 mm | - | 320 W/m² | - |
| 1788104441 | 26.67° C | 64% | 1019.4 hPa | 0 mm | - | 292 W/m² | - |
| 1788104141 | 26.67° C | 66% | 1019.6 hPa | 0 mm | - | 411 W/m² | - |
| 1788103841 | 26.11° C | 69% | 1019.6 hPa | 0 mm | - | 687 W/m² | - |
| 1788103541 | 25.56° C | 69% | 1019.6 hPa | 0 mm | - | 455 W/m² | - |
| 1788103241 | 26.11° C | 67% | 1019.6 hPa | 0 mm | - | 491 W/m² | - |
| 1788102941 | 26.11° C | 67% | 1019.6 hPa | 0 mm | - | 610 W/m² | - |
| 1788102642 | 26.11° C | 68% | 1019.7 hPa | 0 mm | - | 593 W/m² | - |
| 1788102341 | 25.56° C | 67% | 1019.6 hPa | 0 mm | - | 635 W/m² | - |
| 1788102044 | 25.56° C | 68% | 1019.6 hPa | 0 mm | - | 599 W/m² | - |
| 1788101741 | 25.56° C | 68% | 1019.7 hPa | 0 mm | - | 607 W/m² | - |
| 1788101442 | 25.56° C | 67% | 1019.6 hPa | 0 mm | - | 586 W/m² | - |
| 1788101142 | 25° C | 69% | 1019.7 hPa | 0 mm | - | 571 W/m² | - |
| 1788100843 | 24.44° C | 70% | 1019.7 hPa | 0 mm | - | 555 W/m² | - |
| 1788100541 | 24.44° C | 70% | 1019.8 hPa | 0 mm | - | 524 W/m² | - |
| 1788100243 | 23.89° C | 72% | 1019.9 hPa | 0 mm | - | 534 W/m² | - |
| 1788099942 | 23.33° C | 73% | 1020.1 hPa | 0 mm | - | 622 W/m² | - |
| 1788099641 | 23.33° C | 74% | 1020.1 hPa | 0 mm | - | 457 W/m² | - |
* Rain latest hour (hover to see other rain measurements)
** Current wind speed in m/s (hover to see current wind gust speed)